Terminal Aerodrome Forecast
Issued by NWS St Louis, MO

Home | Current Version | Previous Version | Graphics & Text | Print | Product List | Glossary On
Versions: 1 2 3 4 5 6 7 8 9 10 11 12 13 14 15 16 17 18 19 20 21 22 23 24 25
000
FTUS43 KLSX 140500
TAFSTL
TAF
KSTL 140520Z 1406/1512 21004KT P6SM FEW060 SCT100 BKN250
     FM140800 29005KT P6SM SCT250
      TEMPO 1410/1413 5SM BR
     FM141700 30008KT P6SM VCTS SCT040CB BKN100
     FM142100 32010KT P6SM SCT050
     FM150100 33008KT P6SM SKC=

USA.gov is the U.S. government's official web portal to all federal, state and local government web resources and services.